sensor_id;sensor_type;location;lat;lon;timestamp;P1;durP1;ratioP1;P2;durP2;ratioP2
6999;SDS011;3540;53.242;10.408;2024-03-06T00:01:41;21.20;;;12.83;;
6999;SDS011;3540;53.242;10.408;2024-03-06T00:04:06;18.73;;;11.70;;
6999;SDS011;3540;53.242;10.408;2024-03-06T00:06:32;19.60;;;11.93;;
6999;SDS011;3540;53.242;10.408;2024-03-06T00:08:58;19.77;;;11.80;;
6999;SDS011;3540;53.242;10.408;2024-03-06T00:11:24;19.83;;;12.27;;
6999;SDS011;3540;53.242;10.408;2024-03-06T00:13:50;17.90;;;11.43;;
6999;SDS011;3540;53.242;10.408;2024-03-06T00:16:16;19.43;;;11.50;;
6999;SDS011;3540;53.242;10.408;2024-03-06T00:18:42;18.30;;;11.60;;
6999;SDS011;3540;53.242;10.408;2024-03-06T00:21:08;21.97;;;13.23;;
6999;SDS011;3540;53.242;10.408;2024-03-06T00:23:34;22.87;;;13.33;;
6999;SDS011;3540;53.242;10.408;2024-03-06T00:26:02;19.83;;;12.37;;
6999;SDS011;3540;53.242;10.408;2024-03-06T00:28:28;25.63;;;13.10;;
6999;SDS011;3540;53.242;10.408;2024-03-06T00:30:54;20.60;;;12.50;;
6999;SDS011;3540;53.242;10.408;2024-03-06T00:33:20;21.80;;;12.83;;
6999;SDS011;3540;53.242;10.408;2024-03-06T00:35:46;19.10;;;12.33;;
6999;SDS011;3540;53.242;10.408;2024-03-06T00:38:11;23.20;;;13.03;;
6999;SDS011;3540;53.242;10.408;2024-03-06T00:40:38;23.93;;;13.97;;
6999;SDS011;3540;53.242;10.408;2024-03-06T00:43:04;21.97;;;13.37;;
6999;SDS011;3540;53.242;10.408;2024-03-06T00:45:30;23.43;;;12.83;;
6999;SDS011;3540;53.242;10.408;2024-03-06T00:47:56;23.00;;;13.80;;
6999;SDS011;3540;53.242;10.408;2024-03-06T00:50:22;23.63;;;13.17;;
6999;SDS011;3540;53.242;10.408;2024-03-06T00:52:48;24.30;;;13.73;;
6999;SDS011;3540;53.242;10.408;2024-03-06T00:55:14;22.10;;;13.67;;
6999;SDS011;3540;53.242;10.408;2024-03-06T00:57:40;24.50;;;13.57;;
6999;SDS011;3540;53.242;10.408;2024-03-06T01:00:06;22.17;;;13.13;;
6999;SDS011;3540;53.242;10.408;2024-03-06T01:02:36;19.87;;;12.47;;
6999;SDS011;3540;53.242;10.408;2024-03-06T01:05:02;25.67;;;13.03;;
6999;SDS011;3540;53.242;10.408;2024-03-06T01:07:32;24.43;;;13.10;;
6999;SDS011;3540;53.242;10.408;2024-03-06T01:09:58;25.20;;;13.87;;
6999;SDS011;3540;53.242;10.408;2024-03-06T01:12:24;22.97;;;13.30;;
6999;SDS011;3540;53.242;10.408;2024-03-06T01:14:50;24.23;;;14.33;;
6999;SDS011;3540;53.242;10.408;2024-03-06T01:17:15;22.80;;;13.83;;
6999;SDS011;3540;53.242;10.408;2024-03-06T01:19:41;22.83;;;13.00;;
6999;SDS011;3540;53.242;10.408;2024-03-06T01:22:10;25.00;;;13.23;;
6999;SDS011;3540;53.242;10.408;2024-03-06T01:24:36;20.03;;;13.37;;
6999;SDS011;3540;53.242;10.408;2024-03-06T01:27:01;23.20;;;13.13;;
6999;SDS011;3540;53.242;10.408;2024-03-06T01:29:30;24.57;;;13.73;;
6999;SDS011;3540;53.242;10.408;2024-03-06T01:31:57;22.90;;;13.33;;
6999;SDS011;3540;53.242;10.408;2024-03-06T01:34:23;24.57;;;13.40;;
6999;SDS011;3540;53.242;10.408;2024-03-06T01:36:49;22.70;;;14.00;;
6999;SDS011;3540;53.242;10.408;2024-03-06T01:39:15;25.03;;;14.00;;
6999;SDS011;3540;53.242;10.408;2024-03-06T01:41:45;24.03;;;13.90;;
6999;SDS011;3540;53.242;10.408;2024-03-06T01:44:14;25.43;;;13.93;;
6999;SDS011;3540;53.242;10.408;2024-03-06T01:46:41;22.07;;;13.83;;
6999;SDS011;3540;53.242;10.408;2024-03-06T01:49:08;24.80;;;13.67;;
6999;SDS011;3540;53.242;10.408;2024-03-06T01:51:34;25.17;;;13.70;;
6999;SDS011;3540;53.242;10.408;2024-03-06T01:54:01;26.57;;;13.67;;
6999;SDS011;3540;53.242;10.408;2024-03-06T01:56:29;23.17;;;13.83;;
6999;SDS011;3540;53.242;10.408;2024-03-06T01:58:57;23.40;;;12.97;;
6999;SDS011;3540;53.242;10.408;2024-03-06T02:01:24;21.50;;;13.17;;
6999;SDS011;3540;53.242;10.408;2024-03-06T02:03:50;20.60;;;12.77;;
6999;SDS011;3540;53.242;10.408;2024-03-06T02:06:17;22.57;;;12.97;;
6999;SDS011;3540;53.242;10.408;2024-03-06T02:08:45;22.17;;;12.97;;
6999;SDS011;3540;53.242;10.408;2024-03-06T02:11:11;21.47;;;12.63;;
6999;SDS011;3540;53.242;10.408;2024-03-06T02:13:37;21.33;;;12.93;;
6999;SDS011;3540;53.242;10.408;2024-03-06T02:16:04;21.50;;;13.50;;
6999;SDS011;3540;53.242;10.408;2024-03-06T02:18:29;22.53;;;13.10;;
6999;SDS011;3540;53.242;10.408;2024-03-06T02:20:55;25.53;;;13.70;;
6999;SDS011;3540;53.242;10.408;2024-03-06T02:23:21;23.77;;;13.33;;
6999;SDS011;3540;53.242;10.408;2024-03-06T02:25:47;25.97;;;14.43;;
6999;SDS011;3540;53.242;10.408;2024-03-06T02:28:13;23.73;;;13.23;;
6999;SDS011;3540;53.242;10.408;2024-03-06T02:30:39;24.50;;;13.70;;
6999;SDS011;3540;53.242;10.408;2024-03-06T02:33:07;21.30;;;14.17;;
6999;SDS011;3540;53.242;10.408;2024-03-06T02:35:34;24.73;;;13.10;;
6999;SDS011;3540;53.242;10.408;2024-03-06T02:38:01;22.90;;;12.80;;
6999;SDS011;3540;53.242;10.408;2024-03-06T02:40:29;23.20;;;13.13;;
6999;SDS011;3540;53.242;10.408;2024-03-06T02:42:55;22.90;;;12.93;;
6999;SDS011;3540;53.242;10.408;2024-03-06T02:45:21;25.30;;;13.57;;
6999;SDS011;3540;53.242;10.408;2024-03-06T02:47:47;23.17;;;13.63;;
6999;SDS011;3540;53.242;10.408;2024-03-06T02:50:12;21.60;;;12.77;;
6999;SDS011;3540;53.242;10.408;2024-03-06T02:52:38;22.93;;;12.10;;
6999;SDS011;3540;53.242;10.408;2024-03-06T02:55:05;22.90;;;13.10;;
6999;SDS011;3540;53.242;10.408;2024-03-06T02:57:31;22.77;;;13.30;;
6999;SDS011;3540;53.242;10.408;2024-03-06T02:59:57;22.83;;;13.00;;
6999;SDS011;3540;53.242;10.408;2024-03-06T03:02:23;21.13;;;12.73;;
6999;SDS011;3540;53.242;10.408;2024-03-06T03:04:49;21.07;;;12.10;;
6999;SDS011;3540;53.242;10.408;2024-03-06T03:07:15;20.03;;;12.53;;
6999;SDS011;3540;53.242;10.408;2024-03-06T03:09:41;20.90;;;13.47;;
6999;SDS011;3540;53.242;10.408;2024-03-06T03:12:07;21.77;;;13.10;;
6999;SDS011;3540;53.242;10.408;2024-03-06T03:14:32;24.13;;;13.77;;
6999;SDS011;3540;53.242;10.408;2024-03-06T03:16:59;22.27;;;13.47;;
6999;SDS011;3540;53.242;10.408;2024-03-06T03:19:25;21.20;;;13.43;;
6999;SDS011;3540;53.242;10.408;2024-03-06T03:21:51;23.17;;;13.50;;
6999;SDS011;3540;53.242;10.408;2024-03-06T03:24:17;22.63;;;13.83;;
6999;SDS011;3540;53.242;10.408;2024-03-06T03:26:45;22.87;;;12.67;;
6999;SDS011;3540;53.242;10.408;2024-03-06T03:29:11;25.10;;;13.80;;
6999;SDS011;3540;53.242;10.408;2024-03-06T03:31:36;25.10;;;13.67;;
6999;SDS011;3540;53.242;10.408;2024-03-06T03:34:03;26.27;;;14.17;;
6999;SDS011;3540;53.242;10.408;2024-03-06T03:36:30;27.70;;;13.83;;
6999;SDS011;3540;53.242;10.408;2024-03-06T03:38:56;21.27;;;13.33;;
6999;SDS011;3540;53.242;10.408;2024-03-06T03:41:21;21.47;;;13.10;;
6999;SDS011;3540;53.242;10.408;2024-03-06T03:43:47;23.97;;;13.63;;
6999;SDS011;3540;53.242;10.408;2024-03-06T03:46:14;25.13;;;13.57;;
6999;SDS011;3540;53.242;10.408;2024-03-06T03:48:39;22.23;;;13.37;;
6999;SDS011;3540;53.242;10.408;2024-03-06T03:51:05;22.37;;;12.63;;
6999;SDS011;3540;53.242;10.408;2024-03-06T03:53:32;23.07;;;13.13;;
6999;SDS011;3540;53.242;10.408;2024-03-06T03:56:01;27.87;;;14.70;;
6999;SDS011;3540;53.242;10.408;2024-03-06T03:58:28;21.40;;;13.83;;
6999;SDS011;3540;53.242;10.408;2024-03-06T04:00:53;21.20;;;13.23;;
6999;SDS011;3540;53.242;10.408;2024-03-06T04:03:20;22.97;;;14.20;;
6999;SDS011;3540;53.242;10.408;2024-03-06T04:05:49;28.67;;;14.77;;
6999;SDS011;3540;53.242;10.408;2024-03-06T04:08:16;23.50;;;13.37;;
6999;SDS011;3540;53.242;10.408;2024-03-06T04:10:42;23.90;;;14.30;;
6999;SDS011;3540;53.242;10.408;2024-03-06T04:13:11;22.87;;;13.73;;
6999;SDS011;3540;53.242;10.408;2024-03-06T04:15:37;20.93;;;13.77;;
6999;SDS011;3540;53.242;10.408;2024-03-06T04:18:03;19.97;;;12.77;;
6999;SDS011;3540;53.242;10.408;2024-03-06T04:20:29;23.13;;;14.03;;
6999;SDS011;3540;53.242;10.408;2024-03-06T04:22:54;24.57;;;14.00;;
6999;SDS011;3540;53.242;10.408;2024-03-06T04:25:20;23.40;;;13.73;;
6999;SDS011;3540;53.242;10.408;2024-03-06T04:27:45;26.37;;;15.03;;
6999;SDS011;3540;53.242;10.408;2024-03-06T04:30:11;23.43;;;14.73;;
6999;SDS011;3540;53.242;10.408;2024-03-06T04:32:37;28.53;;;15.80;;
6999;SDS011;3540;53.242;10.408;2024-03-06T04:35:03;29.43;;;15.47;;
6999;SDS011;3540;53.242;10.408;2024-03-06T04:37:29;25.57;;;15.03;;
6999;SDS011;3540;53.242;10.408;2024-03-06T04:39:55;28.73;;;15.13;;
6999;SDS011;3540;53.242;10.408;2024-03-06T04:42:21;25.20;;;15.63;;
6999;SDS011;3540;53.242;10.408;2024-03-06T04:44:47;25.23;;;14.73;;
6999;SDS011;3540;53.242;10.408;2024-03-06T04:47:13;23.23;;;14.07;;
6999;SDS011;3540;53.242;10.408;2024-03-06T04:49:38;26.07;;;14.97;;
6999;SDS011;3540;53.242;10.408;2024-03-06T04:52:04;30.57;;;15.20;;
6999;SDS011;3540;53.242;10.408;2024-03-06T04:54:30;26.97;;;14.87;;
6999;SDS011;3540;53.242;10.408;2024-03-06T04:56:55;23.87;;;14.63;;
6999;SDS011;3540;53.242;10.408;2024-03-06T04:59:21;24.20;;;13.93;;
6999;SDS011;3540;53.242;10.408;2024-03-06T05:01:47;27.60;;;14.77;;
6999;SDS011;3540;53.242;10.408;2024-03-06T05:04:13;27.53;;;15.43;;
6999;SDS011;3540;53.242;10.408;2024-03-06T05:06:41;25.70;;;14.90;;
6999;SDS011;3540;53.242;10.408;2024-03-06T05:09:07;26.00;;;13.40;;
6999;SDS011;3540;53.242;10.408;2024-03-06T05:11:32;22.13;;;14.57;;
6999;SDS011;3540;53.242;10.408;2024-03-06T05:14:01;23.00;;;14.30;;
6999;SDS011;3540;53.242;10.408;2024-03-06T05:16:28;24.70;;;14.33;;
6999;SDS011;3540;53.242;10.408;2024-03-06T05:18:53;26.93;;;15.20;;
6999;SDS011;3540;53.242;10.408;2024-03-06T05:21:22;25.50;;;15.37;;
6999;SDS011;3540;53.242;10.408;2024-03-06T05:23:48;23.30;;;14.77;;
6999;SDS011;3540;53.242;10.408;2024-03-06T05:26:14;23.70;;;14.20;;
6999;SDS011;3540;53.242;10.408;2024-03-06T05:28:40;23.13;;;14.50;;
6999;SDS011;3540;53.242;10.408;2024-03-06T05:31:15;27.27;;;14.20;;
6999;SDS011;3540;53.242;10.408;2024-03-06T05:33:44;27.80;;;15.10;;
6999;SDS011;3540;53.242;10.408;2024-03-06T05:36:12;23.50;;;14.37;;
6999;SDS011;3540;53.242;10.408;2024-03-06T05:38:42;24.47;;;13.67;;
6999;SDS011;3540;53.242;10.408;2024-03-06T05:41:08;24.33;;;14.67;;
6999;SDS011;3540;53.242;10.408;2024-03-06T05:43:34;25.10;;;14.83;;
6999;SDS011;3540;53.242;10.408;2024-03-06T05:45:59;22.73;;;14.87;;
6999;SDS011;3540;53.242;10.408;2024-03-06T05:48:25;25.10;;;15.70;;
6999;SDS011;3540;53.242;10.408;2024-03-06T05:50:51;26.57;;;15.17;;
6999;SDS011;3540;53.242;10.408;2024-03-06T05:53:18;24.30;;;14.23;;
6999;SDS011;3540;53.242;10.408;2024-03-06T05:55:43;25.87;;;14.57;;
6999;SDS011;3540;53.242;10.408;2024-03-06T05:58:09;25.90;;;14.07;;
6999;SDS011;3540;53.242;10.408;2024-03-06T06:00:35;28.43;;;14.67;;
6999;SDS011;3540;53.242;10.408;2024-03-06T06:03:00;26.30;;;15.60;;
6999;SDS011;3540;53.242;10.408;2024-03-06T06:05:26;26.97;;;14.87;;
6999;SDS011;3540;53.242;10.408;2024-03-06T06:07:51;26.83;;;14.80;;
6999;SDS011;3540;53.242;10.408;2024-03-06T06:10:17;27.03;;;14.70;;
6999;SDS011;3540;53.242;10.408;2024-03-06T06:12:44;25.27;;;15.47;;
6999;SDS011;3540;53.242;10.408;2024-03-06T06:15:09;24.43;;;14.83;;
6999;SDS011;3540;53.242;10.408;2024-03-06T06:17:35;28.90;;;15.17;;
6999;SDS011;3540;53.242;10.408;2024-03-06T06:20:02;25.80;;;14.73;;
6999;SDS011;3540;53.242;10.408;2024-03-06T06:22:34;24.40;;;14.63;;
6999;SDS011;3540;53.242;10.408;2024-03-06T06:25:03;28.10;;;15.10;;
6999;SDS011;3540;53.242;10.408;2024-03-06T06:27:29;26.53;;;14.13;;
6999;SDS011;3540;53.242;10.408;2024-03-06T06:29:54;28.23;;;15.53;;
6999;SDS011;3540;53.242;10.408;2024-03-06T06:32:20;32.00;;;15.83;;
6999;SDS011;3540;53.242;10.408;2024-03-06T06:34:46;26.47;;;15.50;;
6999;SDS011;3540;53.242;10.408;2024-03-06T06:37:12;26.33;;;16.03;;
6999;SDS011;3540;53.242;10.408;2024-03-06T06:39:37;23.77;;;14.07;;
6999;SDS011;3540;53.242;10.408;2024-03-06T06:42:03;31.50;;;15.90;;
6999;SDS011;3540;53.242;10.408;2024-03-06T06:44:29;27.97;;;15.80;;
6999;SDS011;3540;53.242;10.408;2024-03-06T06:46:55;28.47;;;15.70;;
6999;SDS011;3540;53.242;10.408;2024-03-06T06:49:21;32.70;;;18.67;;
6999;SDS011;3540;53.242;10.408;2024-03-06T06:51:47;27.93;;;16.33;;
6999;SDS011;3540;53.242;10.408;2024-03-06T06:54:14;47.03;;;28.20;;
6999;SDS011;3540;53.242;10.408;2024-03-06T06:56:40;40.83;;;22.77;;
6999;SDS011;3540;53.242;10.408;2024-03-06T06:59:05;42.77;;;25.63;;
6999;SDS011;3540;53.242;10.408;2024-03-06T07:01:31;42.60;;;27.37;;
6999;SDS011;3540;53.242;10.408;2024-03-06T07:03:58;45.53;;;26.37;;
6999;SDS011;3540;53.242;10.408;2024-03-06T07:06:24;41.47;;;24.23;;
6999;SDS011;3540;53.242;10.408;2024-03-06T07:08:49;40.67;;;25.37;;
6999;SDS011;3540;53.242;10.408;2024-03-06T07:11:16;37.33;;;22.10;;
6999;SDS011;3540;53.242;10.408;2024-03-06T07:13:43;36.17;;;22.70;;
6999;SDS011;3540;53.242;10.408;2024-03-06T07:16:09;32.07;;;19.57;;
6999;SDS011;3540;53.242;10.408;2024-03-06T07:18:34;35.20;;;20.40;;
6999;SDS011;3540;53.242;10.408;2024-03-06T07:21:00;33.33;;;18.37;;
6999;SDS011;3540;53.242;10.408;2024-03-06T07:23:26;29.63;;;17.60;;
6999;SDS011;3540;53.242;10.408;2024-03-06T07:25:51;29.27;;;17.47;;
6999;SDS011;3540;53.242;10.408;2024-03-06T07:28:17;27.57;;;16.93;;
6999;SDS011;3540;53.242;10.408;2024-03-06T07:30:44;26.70;;;17.13;;
6999;SDS011;3540;53.242;10.408;2024-03-06T07:33:09;22.23;;;14.70;;
6999;SDS011;3540;53.242;10.408;2024-03-06T07:35:35;31.70;;;16.00;;
6999;SDS011;3540;53.242;10.408;2024-03-06T07:38:01;27.17;;;15.60;;
6999;SDS011;3540;53.242;10.408;2024-03-06T07:40:29;26.37;;;15.87;;
6999;SDS011;3540;53.242;10.408;2024-03-06T07:42:56;26.70;;;16.00;;
6999;SDS011;3540;53.242;10.408;2024-03-06T07:45:22;24.77;;;15.70;;
6999;SDS011;3540;53.242;10.408;2024-03-06T07:47:47;24.93;;;15.73;;
6999;SDS011;3540;53.242;10.408;2024-03-06T07:50:13;24.13;;;15.63;;
6999;SDS011;3540;53.242;10.408;2024-03-06T07:52:43;26.47;;;16.07;;
6999;SDS011;3540;53.242;10.408;2024-03-06T07:55:10;22.17;;;14.87;;
6999;SDS011;3540;53.242;10.408;2024-03-06T07:57:35;21.60;;;14.53;;
6999;SDS011;3540;53.242;10.408;2024-03-06T08:00:01;21.63;;;14.37;;
6999;SDS011;3540;53.242;10.408;2024-03-06T08:02:33;19.87;;;14.23;;
6999;SDS011;3540;53.242;10.408;2024-03-06T08:05:00;19.10;;;13.90;;
6999;SDS011;3540;53.242;10.408;2024-03-06T08:07:26;21.53;;;13.93;;
6999;SDS011;3540;53.242;10.408;2024-03-06T08:09:51;18.80;;;14.13;;
6999;SDS011;3540;53.242;10.408;2024-03-06T08:12:17;18.80;;;13.97;;
6999;SDS011;3540;53.242;10.408;2024-03-06T08:14:42;20.93;;;14.30;;
6999;SDS011;3540;53.242;10.408;2024-03-06T08:17:08;19.20;;;13.87;;
6999;SDS011;3540;53.242;10.408;2024-03-06T08:19:34;19.57;;;14.07;;
6999;SDS011;3540;53.242;10.408;2024-03-06T08:22:00;19.37;;;13.70;;
6999;SDS011;3540;53.242;10.408;2024-03-06T08:24:26;17.57;;;13.33;;
6999;SDS011;3540;53.242;10.408;2024-03-06T08:26:52;19.87;;;13.40;;
6999;SDS011;3540;53.242;10.408;2024-03-06T08:29:17;17.93;;;13.10;;
6999;SDS011;3540;53.242;10.408;2024-03-06T08:31:43;20.30;;;12.87;;
6999;SDS011;3540;53.242;10.408;2024-03-06T08:34:09;18.77;;;12.30;;
6999;SDS011;3540;53.242;10.408;2024-03-06T08:36:34;17.47;;;12.33;;
6999;SDS011;3540;53.242;10.408;2024-03-06T08:39:00;16.20;;;11.73;;
6999;SDS011;3540;53.242;10.408;2024-03-06T08:41:25;14.80;;;11.13;;
6999;SDS011;3540;53.242;10.408;2024-03-06T08:43:51;16.07;;;11.27;;
6999;SDS011;3540;53.242;10.408;2024-03-06T08:46:17;16.23;;;12.00;;
6999;SDS011;3540;53.242;10.408;2024-03-06T08:48:42;15.37;;;11.23;;
6999;SDS011;3540;53.242;10.408;2024-03-06T08:51:08;15.20;;;10.87;;
6999;SDS011;3540;53.242;10.408;2024-03-06T08:53:36;13.03;;;11.03;;
6999;SDS011;3540;53.242;10.408;2024-03-06T08:56:03;12.63;;;10.10;;
6999;SDS011;3540;53.242;10.408;2024-03-06T08:58:29;16.57;;;10.10;;
6999;SDS011;3540;53.242;10.408;2024-03-06T09:00:55;12.20;;;9.93;;
6999;SDS011;3540;53.242;10.408;2024-03-06T09:03:20;15.07;;;9.97;;
6999;SDS011;3540;53.242;10.408;2024-03-06T09:05:46;13.83;;;9.93;;
6999;SDS011;3540;53.242;10.408;2024-03-06T09:08:12;14.77;;;10.30;;
6999;SDS011;3540;53.242;10.408;2024-03-06T09:10:37;19.27;;;10.60;;
6999;SDS011;3540;53.242;10.408;2024-03-06T09:13:03;16.77;;;10.57;;
6999;SDS011;3540;53.242;10.408;2024-03-06T09:15:29;14.40;;;9.93;;
6999;SDS011;3540;53.242;10.408;2024-03-06T09:17:54;12.97;;;9.40;;
6999;SDS011;3540;53.242;10.408;2024-03-06T09:20:23;14.80;;;10.13;;
6999;SDS011;3540;53.242;10.408;2024-03-06T09:22:49;14.60;;;10.00;;
6999;SDS011;3540;53.242;10.408;2024-03-06T09:25:15;14.20;;;11.00;;
6999;SDS011;3540;53.242;10.408;2024-03-06T09:27:41;14.80;;;10.47;;
6999;SDS011;3540;53.242;10.408;2024-03-06T09:30:07;13.83;;;10.43;;
6999;SDS011;3540;53.242;10.408;2024-03-06T09:32:34;14.13;;;10.23;;
6999;SDS011;3540;53.242;10.408;2024-03-06T09:34:59;13.70;;;10.13;;
6999;SDS011;3540;53.242;10.408;2024-03-06T09:37:25;15.00;;;9.87;;
6999;SDS011;3540;53.242;10.408;2024-03-06T09:39:51;14.77;;;9.90;;
6999;SDS011;3540;53.242;10.408;2024-03-06T09:42:16;13.70;;;9.87;;
6999;SDS011;3540;53.242;10.408;2024-03-06T09:44:43;13.63;;;9.90;;
6999;SDS011;3540;53.242;10.408;2024-03-06T09:47:11;17.27;;;9.93;;
6999;SDS011;3540;53.242;10.408;2024-03-06T09:49:40;16.37;;;10.60;;
6999;SDS011;3540;53.242;10.408;2024-03-06T09:52:06;12.83;;;10.00;;
6999;SDS011;3540;53.242;10.408;2024-03-06T09:54:32;16.63;;;11.27;;
6999;SDS011;3540;53.242;10.408;2024-03-06T09:56:58;16.53;;;10.77;;
6999;SDS011;3540;53.242;10.408;2024-03-06T09:59:24;16.60;;;10.73;;
6999;SDS011;3540;53.242;10.408;2024-03-06T10:01:53;16.27;;;10.73;;
6999;SDS011;3540;53.242;10.408;2024-03-06T10:04:20;16.70;;;10.70;;
6999;SDS011;3540;53.242;10.408;2024-03-06T10:06:50;16.20;;;11.23;;
6999;SDS011;3540;53.242;10.408;2024-03-06T10:09:23;15.30;;;11.03;;
6999;SDS011;3540;53.242;10.408;2024-03-06T10:11:50;15.10;;;10.90;;
6999;SDS011;3540;53.242;10.408;2024-03-06T10:14:18;15.53;;;11.07;;
6999;SDS011;3540;53.242;10.408;2024-03-06T10:19:19;21.47;;;11.27;;
6999;SDS011;3540;53.242;10.408;2024-03-06T10:21:48;14.70;;;10.87;;
6999;SDS011;3540;53.242;10.408;2024-03-06T10:24:19;14.73;;;11.00;;
6999;SDS011;3540;53.242;10.408;2024-03-06T10:26:46;17.53;;;11.60;;
6999;SDS011;3540;53.242;10.408;2024-03-06T10:29:15;15.20;;;11.63;;
6999;SDS011;3540;53.242;10.408;2024-03-06T10:31:47;18.37;;;11.13;;
6999;SDS011;3540;53.242;10.408;2024-03-06T10:34:13;17.03;;;11.67;;
6999;SDS011;3540;53.242;10.408;2024-03-06T10:36:39;15.77;;;11.47;;
6999;SDS011;3540;53.242;10.408;2024-03-06T10:39:06;16.10;;;11.83;;
6999;SDS011;3540;53.242;10.408;2024-03-06T10:41:35;19.13;;;12.63;;
6999;SDS011;3540;53.242;10.408;2024-03-06T10:44:02;17.40;;;11.67;;
6999;SDS011;3540;53.242;10.408;2024-03-06T10:46:29;16.47;;;12.07;;
6999;SDS011;3540;53.242;10.408;2024-03-06T10:48:55;17.43;;;11.93;;
6999;SDS011;3540;53.242;10.408;2024-03-06T10:51:23;17.60;;;12.40;;
6999;SDS011;3540;53.242;10.408;2024-03-06T10:53:51;18.03;;;11.50;;
6999;SDS011;3540;53.242;10.408;2024-03-06T10:56:18;16.27;;;11.53;;
6999;SDS011;3540;53.242;10.408;2024-03-06T10:58:46;15.10;;;11.20;;
6999;SDS011;3540;53.242;10.408;2024-03-06T11:01:16;20.00;;;11.87;;
6999;SDS011;3540;53.242;10.408;2024-03-06T11:03:42;16.73;;;11.80;;
6999;SDS011;3540;53.242;10.408;2024-03-06T11:06:07;15.10;;;10.50;;
6999;SDS011;3540;53.242;10.408;2024-03-06T11:08:33;17.97;;;11.60;;
6999;SDS011;3540;53.242;10.408;2024-03-06T11:11:18;18.37;;;13.30;;
6999;SDS011;3540;53.242;10.408;2024-03-06T11:13:46;16.77;;;10.77;;
6999;SDS011;3540;53.242;10.408;2024-03-06T11:16:12;14.10;;;11.03;;
6999;SDS011;3540;53.242;10.408;2024-03-06T11:23:29;15.57;;;10.93;;
6999;SDS011;3540;53.242;10.408;2024-03-06T11:25:56;16.47;;;10.87;;
6999;SDS011;3540;53.242;10.408;2024-03-06T11:28:26;17.67;;;13.43;;
6999;SDS011;3540;53.242;10.408;2024-03-06T11:33:40;14.73;;;10.80;;
6999;SDS011;3540;53.242;10.408;2024-03-06T11:36:16;15.57;;;10.87;;
6999;SDS011;3540;53.242;10.408;2024-03-06T11:39:27;16.80;;;10.83;;
6999;SDS011;3540;53.242;10.408;2024-03-06T11:41:46;14.83;;;10.90;;
6999;SDS011;3540;53.242;10.408;2024-03-06T11:44:14;15.60;;;10.83;;
6999;SDS011;3540;53.242;10.408;2024-03-06T11:46:45;16.90;;;10.80;;
6999;SDS011;3540;53.242;10.408;2024-03-06T11:49:21;13.70;;;10.00;;
6999;SDS011;3540;53.242;10.408;2024-03-06T11:51:50;12.77;;;10.10;;
6999;SDS011;3540;53.242;10.408;2024-03-06T11:54:36;13.83;;;9.67;;
6999;SDS011;3540;53.242;10.408;2024-03-06T11:57:03;14.37;;;11.00;;
6999;SDS011;3540;53.242;10.408;2024-03-06T11:59:31;15.70;;;9.40;;
6999;SDS011;3540;53.242;10.408;2024-03-06T12:01:58;18.57;;;10.17;;
6999;SDS011;3540;53.242;10.408;2024-03-06T12:04:29;12.90;;;9.73;;
6999;SDS011;3540;53.242;10.408;2024-03-06T12:06:56;18.23;;;12.10;;
6999;SDS011;3540;53.242;10.408;2024-03-06T12:09:30;16.37;;;10.13;;
6999;SDS011;3540;53.242;10.408;2024-03-06T12:11:56;14.47;;;9.50;;
6999;SDS011;3540;53.242;10.408;2024-03-06T12:14:22;15.87;;;9.67;;
6999;SDS011;3540;53.242;10.408;2024-03-06T12:16:55;13.37;;;8.67;;
6999;SDS011;3540;53.242;10.408;2024-03-06T12:19:21;12.03;;;9.27;;
6999;SDS011;3540;53.242;10.408;2024-03-06T12:21:48;15.83;;;9.60;;
6999;SDS011;3540;53.242;10.408;2024-03-06T12:24:15;19.73;;;13.80;;
6999;SDS011;3540;53.242;10.408;2024-03-06T12:26:44;13.17;;;10.63;;
6999;SDS011;3540;53.242;10.408;2024-03-06T12:29:16;13.33;;;9.80;;
6999;SDS011;3540;53.242;10.408;2024-03-06T12:31:44;13.37;;;8.87;;
6999;SDS011;3540;53.242;10.408;2024-03-06T12:34:13;17.27;;;9.20;;
6999;SDS011;3540;53.242;10.408;2024-03-06T12:36:42;15.80;;;9.37;;
6999;SDS011;3540;53.242;10.408;2024-03-06T12:39:08;14.33;;;9.87;;
6999;SDS011;3540;53.242;10.408;2024-03-06T12:41:41;14.67;;;9.27;;
6999;SDS011;3540;53.242;10.408;2024-03-06T12:44:12;14.60;;;9.30;;
6999;SDS011;3540;53.242;10.408;2024-03-06T12:46:40;17.40;;;9.00;;
6999;SDS011;3540;53.242;10.408;2024-03-06T12:49:05;14.67;;;9.90;;
6999;SDS011;3540;53.242;10.408;2024-03-06T12:51:31;12.07;;;9.40;;
6999;SDS011;3540;53.242;10.408;2024-03-06T12:53:57;15.47;;;9.77;;
6999;SDS011;3540;53.242;10.408;2024-03-06T12:56:23;12.87;;;9.20;;
6999;SDS011;3540;53.242;10.408;2024-03-06T12:58:50;13.43;;;9.53;;
6999;SDS011;3540;53.242;10.408;2024-03-06T13:01:16;13.40;;;9.53;;
6999;SDS011;3540;53.242;10.408;2024-03-06T13:03:42;17.93;;;10.20;;
6999;SDS011;3540;53.242;10.408;2024-03-06T13:06:07;13.33;;;9.40;;
6999;SDS011;3540;53.242;10.408;2024-03-06T13:08:33;16.33;;;9.47;;
6999;SDS011;3540;53.242;10.408;2024-03-06T13:10:59;11.43;;;9.23;;
6999;SDS011;3540;53.242;10.408;2024-03-06T13:13:24;12.77;;;9.47;;
6999;SDS011;3540;53.242;10.408;2024-03-06T13:15:50;15.87;;;9.90;;
6999;SDS011;3540;53.242;10.408;2024-03-06T13:18:16;20.80;;;9.93;;
6999;SDS011;3540;53.242;10.408;2024-03-06T13:20:43;16.80;;;9.97;;
6999;SDS011;3540;53.242;10.408;2024-03-06T13:23:09;13.20;;;9.37;;
6999;SDS011;3540;53.242;10.408;2024-03-06T13:25:35;14.60;;;9.97;;
6999;SDS011;3540;53.242;10.408;2024-03-06T13:28:01;14.73;;;9.90;;
6999;SDS011;3540;53.242;10.408;2024-03-06T13:30:28;15.97;;;9.97;;
6999;SDS011;3540;53.242;10.408;2024-03-06T13:32:53;13.77;;;9.53;;
6999;SDS011;3540;53.242;10.408;2024-03-06T13:35:19;13.80;;;9.47;;
6999;SDS011;3540;53.242;10.408;2024-03-06T13:37:45;14.47;;;9.73;;
6999;SDS011;3540;53.242;10.408;2024-03-06T13:40:11;14.00;;;9.63;;
6999;SDS011;3540;53.242;10.408;2024-03-06T13:42:40;14.07;;;9.60;;
6999;SDS011;3540;53.242;10.408;2024-03-06T13:45:07;15.00;;;9.17;;
6999;SDS011;3540;53.242;10.408;2024-03-06T13:47:42;15.20;;;9.40;;
6999;SDS011;3540;53.242;10.408;2024-03-06T13:50:12;14.00;;;9.10;;
6999;SDS011;3540;53.242;10.408;2024-03-06T13:52:39;13.80;;;9.30;;
6999;SDS011;3540;53.242;10.408;2024-03-06T13:55:05;12.37;;;9.00;;
6999;SDS011;3540;53.242;10.408;2024-03-06T13:57:33;15.33;;;8.80;;
6999;SDS011;3540;53.242;10.408;2024-03-06T14:00:02;12.10;;;9.07;;
6999;SDS011;3540;53.242;10.408;2024-03-06T14:02:42;11.40;;;8.63;;
6999;SDS011;3540;53.242;10.408;2024-03-06T14:05:11;14.77;;;9.43;;
6999;SDS011;3540;53.242;10.408;2024-03-06T14:07:38;12.93;;;8.77;;
6999;SDS011;3540;53.242;10.408;2024-03-06T14:10:04;12.47;;;8.97;;
6999;SDS011;3540;53.242;10.408;2024-03-06T14:12:30;14.13;;;8.57;;
6999;SDS011;3540;53.242;10.408;2024-03-06T14:14:56;13.10;;;8.87;;
6999;SDS011;3540;53.242;10.408;2024-03-06T14:17:22;12.30;;;8.13;;
6999;SDS011;3540;53.242;10.408;2024-03-06T14:19:47;11.63;;;8.27;;
6999;SDS011;3540;53.242;10.408;2024-03-06T14:22:13;11.20;;;8.20;;
6999;SDS011;3540;53.242;10.408;2024-03-06T14:24:38;10.70;;;7.90;;
6999;SDS011;3540;53.242;10.408;2024-03-06T14:27:04;12.00;;;8.40;;
6999;SDS011;3540;53.242;10.408;2024-03-06T14:29:31;12.60;;;8.23;;
6999;SDS011;3540;53.242;10.408;2024-03-06T14:31:56;13.87;;;9.00;;
6999;SDS011;3540;53.242;10.408;2024-03-06T14:34:22;12.27;;;8.57;;
6999;SDS011;3540;53.242;10.408;2024-03-06T14:36:49;13.03;;;8.80;;
6999;SDS011;3540;53.242;10.408;2024-03-06T14:39:19;13.00;;;8.67;;
6999;SDS011;3540;53.242;10.408;2024-03-06T14:41:49;11.80;;;8.40;;
6999;SDS011;3540;53.242;10.408;2024-03-06T14:44:14;11.03;;;8.33;;
6999;SDS011;3540;53.242;10.408;2024-03-06T14:46:40;20.20;;;14.50;;